sensor_id;sensor_type;location;lat;lon;timestamp;pressure;altitude;pressure_sealevel;temperature;humidity
55066;BME280;40964;42.114;24.220;2023-02-13T00:02:03;99653.31;;;2.49;69.86
55066;BME280;40964;42.114;24.220;2023-02-13T00:04:29;99648.38;;;2.35;70.55
55066;BME280;40964;42.114;24.220;2023-02-13T00:06:54;99649.91;;;2.37;70.60
55066;BME280;40964;42.114;24.220;2023-02-13T00:09:20;99659.69;;;2.45;70.03
55066;BME280;40964;42.114;24.220;2023-02-13T00:11:45;99653.31;;;2.49;70.21
55066;BME280;40964;42.114;24.220;2023-02-13T00:14:11;99666.41;;;2.47;70.25
55066;BME280;40964;42.114;24.220;2023-02-13T00:16:36;99659.69;;;2.45;70.25
55066;BME280;40964;42.114;24.220;2023-02-13T00:19:01;99663.72;;;2.38;70.75
55066;BME280;40964;42.114;24.220;2023-02-13T00:21:27;99674.66;;;2.41;70.62
55066;BME280;40964;42.114;24.220;2023-02-13T00:23:52;99678.09;;;2.42;70.65
55066;BME280;40964;42.114;24.220;2023-02-13T00:26:18;99676.31;;;2.42;70.21
55066;BME280;40964;42.114;24.220;2023-02-13T00:28:44;99677.63;;;2.48;70.61
55066;BME280;40964;42.114;24.220;2023-02-13T00:31:13;99679.06;;;2.52;70.41
55066;BME280;40964;42.114;24.220;2023-02-13T00:33:39;99680.81;;;2.51;69.87
55066;BME280;40964;42.114;24.220;2023-02-13T00:36:13;99683.91;;;2.45;70.86
55066;BME280;40964;42.114;24.220;2023-02-13T00:38:40;99682.22;;;2.33;71.10
55066;BME280;40964;42.114;24.220;2023-02-13T00:41:06;99682.91;;;2.24;71.18
55066;BME280;40964;42.114;24.220;2023-02-13T00:43:33;99670.31;;;2.19;71.22
55066;BME280;40964;42.114;24.220;2023-02-13T00:45:58;99682.09;;;2.23;70.90
55066;BME280;40964;42.114;24.220;2023-02-13T00:48:25;99675.25;;;2.22;71.55
55066;BME280;40964;42.114;24.220;2023-02-13T00:50:50;99684.59;;;2.25;71.85
55066;BME280;40964;42.114;24.220;2023-02-13T00:53:17;99680.31;;;2.13;71.29
55066;BME280;40964;42.114;24.220;2023-02-13T00:55:43;99685.75;;;1.98;71.91
55066;BME280;40964;42.114;24.220;2023-02-13T00:58:08;99683.91;;;1.77;73.04
55066;BME280;40964;42.114;24.220;2023-02-13T01:00:34;99679.69;;;1.87;73.12
55066;BME280;40964;42.114;24.220;2023-02-13T01:02:59;99684.63;;;1.79;72.78
55066;BME280;40964;42.114;24.220;2023-02-13T01:05:25;99689.22;;;1.86;72.90
55066;BME280;40964;42.114;24.220;2023-02-13T01:07:53;99687.72;;;1.95;72.25
55066;BME280;40964;42.114;24.220;2023-02-13T01:10:18;99693.97;;;1.92;72.40
55066;BME280;40964;42.114;24.220;2023-02-13T01:12:44;99692.91;;;1.84;72.91
55066;BME280;40964;42.114;24.220;2023-02-13T01:15:09;99687.72;;;1.84;72.72
55066;BME280;40964;42.114;24.220;2023-02-13T01:17:35;99687.84;;;1.93;72.78
55066;BME280;40964;42.114;24.220;2023-02-13T01:20:05;99687.97;;;1.92;72.75
55066;BME280;40964;42.114;24.220;2023-02-13T01:22:31;99695.13;;;1.88;72.57
55066;BME280;40964;42.114;24.220;2023-02-13T01:24:57;99694.16;;;1.78;73.05
55066;BME280;40964;42.114;24.220;2023-02-13T01:27:22;99694.50;;;1.62;74.70
55066;BME280;40964;42.114;24.220;2023-02-13T01:29:48;99695.88;;;1.55;74.79
55066;BME280;40964;42.114;24.220;2023-02-13T01:32:13;99704.59;;;1.54;74.83
55066;BME280;40964;42.114;24.220;2023-02-13T01:34:39;99698.59;;;1.54;75.06
55066;BME280;40964;42.114;24.220;2023-02-13T01:37:04;99695.25;;;1.52;74.88
55066;BME280;40964;42.114;24.220;2023-02-13T01:39:30;99701.19;;;1.54;74.45
55066;BME280;40964;42.114;24.220;2023-02-13T01:41:55;99701.06;;;1.55;74.97
55066;BME280;40964;42.114;24.220;2023-02-13T01:45:23;99703.41;;;1.58;74.95
55066;BME280;40964;42.114;24.220;2023-02-13T01:47:41;99711.84;;;1.73;73.74
55066;BME280;40964;42.114;24.220;2023-02-13T01:55:35;99711.44;;;1.90;72.84
55066;BME280;40964;42.114;24.220;2023-02-13T01:58:06;99705.75;;;1.96;72.29
55066;BME280;40964;42.114;24.220;2023-02-13T02:00:33;99708.16;;;1.99;72.47
55066;BME280;40964;42.114;24.220;2023-02-13T02:03:04;99694.91;;;1.91;72.37
55066;BME280;40964;42.114;24.220;2023-02-13T02:05:33;99708.00;;;1.90;73.18
55066;BME280;40964;42.114;24.220;2023-02-13T02:08:01;99700.69;;;1.84;72.60
55066;BME280;40964;42.114;24.220;2023-02-13T02:10:30;99707.28;;;1.88;73.57
55066;BME280;40964;42.114;24.220;2023-02-13T02:13:16;99713.34;;;1.99;72.91
55066;BME280;40964;42.114;24.220;2023-02-13T02:15:46;99705.06;;;2.06;72.57
55066;BME280;40964;42.114;24.220;2023-02-13T02:18:14;99711.09;;;2.06;72.35
55066;BME280;40964;42.114;24.220;2023-02-13T02:34:30;99734.94;;;2.00;72.58
55066;BME280;40964;42.114;24.220;2023-02-13T02:45:25;99729.31;;;2.17;71.36
55066;BME280;40964;42.114;24.220;2023-02-13T02:47:59;99740.38;;;2.19;71.46
55066;BME280;40964;42.114;24.220;2023-02-13T02:50:53;99734.94;;;2.11;71.87
55066;BME280;40964;42.114;24.220;2023-02-13T02:53:45;99732.94;;;2.15;71.93
55066;BME280;40964;42.114;24.220;2023-02-13T02:56:30;99735.78;;;2.12;71.66
55066;BME280;40964;42.114;24.220;2023-02-13T02:59:05;99737.78;;;2.19;70.93
55066;BME280;40964;42.114;24.220;2023-02-13T03:01:53;99728.59;;;2.26;71.27
55066;BME280;40964;42.114;24.220;2023-02-13T03:04:45;99733.56;;;2.30;71.08
55066;BME280;40964;42.114;24.220;2023-02-13T03:07:30;99738.50;;;2.21;70.94
55066;BME280;40964;42.114;24.220;2023-02-13T03:09:59;99735.88;;;2.10;71.16
55066;BME280;40964;42.114;24.220;2023-02-13T03:12:51;99740.72;;;2.15;71.04
55066;BME280;40964;42.114;24.220;2023-02-13T03:15:41;99736.25;;;2.17;71.60
55066;BME280;40964;42.114;24.220;2023-02-13T03:18:29;99732.94;;;2.15;71.50
55066;BME280;40964;42.114;24.220;2023-02-13T03:21:18;99727.88;;;2.13;71.00
55066;BME280;40964;42.114;24.220;2023-02-13T03:24:19;99729.78;;;2.22;70.65
55066;BME280;40964;42.114;24.220;2023-02-13T03:30:17;99735.06;;;2.21;70.64
55066;BME280;40964;42.114;24.220;2023-02-13T03:41:43;99731.16;;;2.15;71.30
55066;BME280;40964;42.114;24.220;2023-02-13T03:46:52;99728.34;;;2.07;72.22
55066;BME280;40964;42.114;24.220;2023-02-13T03:49:22;99730.19;;;1.94;71.78
55066;BME280;40964;42.114;24.220;2023-02-13T03:54:55;99737.72;;;1.97;71.75
55066;BME280;40964;42.114;24.220;2023-02-13T03:57:43;99737.38;;;1.90;72.17
55066;BME280;40964;42.114;24.220;2023-02-13T04:00:34;99744.53;;;1.87;72.24
55066;BME280;40964;42.114;24.220;2023-02-13T04:05:39;99743.91;;;1.72;72.73
55066;BME280;40964;42.114;24.220;2023-02-13T04:08:05;99744.00;;;1.70;72.80
55066;BME280;40964;42.114;24.220;2023-02-13T04:10:33;99756.63;;;1.64;72.61
55066;BME280;40964;42.114;24.220;2023-02-13T04:13:17;99757.63;;;1.61;72.66
55066;BME280;40964;42.114;24.220;2023-02-13T04:15:53;99750.66;;;1.51;72.78
55066;BME280;40964;42.114;24.220;2023-02-13T04:18:23;99754.81;;;1.53;73.32
55066;BME280;40964;42.114;24.220;2023-02-13T04:20:50;99760.97;;;1.39;73.37
55066;BME280;40964;42.114;24.220;2023-02-13T04:23:16;99762.22;;;1.34;72.78
55066;BME280;40964;42.114;24.220;2023-02-13T04:25:43;99753.13;;;1.28;73.89
55066;BME280;40964;42.114;24.220;2023-02-13T04:28:09;99754.06;;;1.27;74.21
55066;BME280;40964;42.114;24.220;2023-02-13T04:30:35;99751.78;;;1.23;74.60
55066;BME280;40964;42.114;24.220;2023-02-13T04:33:00;99755.56;;;1.19;74.62
55066;BME280;40964;42.114;24.220;2023-02-13T04:35:26;99741.13;;;1.14;74.62
55066;BME280;40964;42.114;24.220;2023-02-13T04:37:51;99749.25;;;1.10;74.20
55066;BME280;40964;42.114;24.220;2023-02-13T04:40:16;99740.72;;;0.84;74.47
55066;BME280;40964;42.114;24.220;2023-02-13T04:42:42;99741.34;;;0.62;75.08
55066;BME280;40964;42.114;24.220;2023-02-13T04:45:08;99746.94;;;0.43;75.93
55066;BME280;40964;42.114;24.220;2023-02-13T04:47:34;99733.09;;;0.19;76.37
55066;BME280;40964;42.114;24.220;2023-02-13T04:50:00;99746.03;;;0.19;77.46
55066;BME280;40964;42.114;24.220;2023-02-13T04:52:25;99749.75;;;0.15;77.83
55066;BME280;40964;42.114;24.220;2023-02-13T04:54:51;99751.72;;;0.11;77.50
55066;BME280;40964;42.114;24.220;2023-02-13T04:57:16;99750.47;;;0.04;78.35
55066;BME280;40964;42.114;24.220;2023-02-13T04:59:42;99742.16;;;-0.01;78.84
55066;BME280;40964;42.114;24.220;2023-02-13T05:02:07;99736.78;;;-0.11;79.03
55066;BME280;40964;42.114;24.220;2023-02-13T05:04:33;99740.88;;;-0.21;79.30
55066;BME280;40964;42.114;24.220;2023-02-13T05:06:58;99752.38;;;-0.12;79.17
55066;BME280;40964;42.114;24.220;2023-02-13T05:09:24;99748.53;;;-0.19;79.41
55066;BME280;40964;42.114;24.220;2023-02-13T05:11:51;99757.88;;;-0.17;79.60
55066;BME280;40964;42.114;24.220;2023-02-13T05:14:17;99759.00;;;-0.21;79.62
55066;BME280;40964;42.114;24.220;2023-02-13T05:16:42;99763.06;;;-0.17;80.47
55066;BME280;40964;42.114;24.220;2023-02-13T05:19:08;99761.63;;;-0.08;79.87
55066;BME280;40964;42.114;24.220;2023-02-13T05:21:36;99772.78;;;-0.08;79.94
55066;BME280;40964;42.114;24.220;2023-02-13T05:24:20;99769.66;;;-0.13;80.45
55066;BME280;40964;42.114;24.220;2023-02-13T05:26:45;99771.03;;;-0.07;80.15
55066;BME280;40964;42.114;24.220;2023-02-13T05:29:11;99767.94;;;0.01;80.31
55066;BME280;40964;42.114;24.220;2023-02-13T05:31:57;99772.19;;;0.02;80.07
55066;BME280;40964;42.114;24.220;2023-02-13T05:34:25;99768.25;;;0.09;80.06
55066;BME280;40964;42.114;24.220;2023-02-13T05:36:51;99774.78;;;0.14;79.54
55066;BME280;40964;42.114;24.220;2023-02-13T05:39:16;99777.47;;;0.13;79.56
55066;BME280;40964;42.114;24.220;2023-02-13T05:41:43;99786.28;;;0.23;79.47
55066;BME280;40964;42.114;24.220;2023-02-13T05:44:08;99774.91;;;0.13;78.28
55066;BME280;40964;42.114;24.220;2023-02-13T05:46:36;99797.69;;;0.20;79.04
55066;BME280;40964;42.114;24.220;2023-02-13T05:49:02;99799.13;;;0.24;78.78
55066;BME280;40964;42.114;24.220;2023-02-13T05:51:27;99796.63;;;0.36;78.55
55066;BME280;40964;42.114;24.220;2023-02-13T05:53:53;99801.63;;;0.39;78.18
55066;BME280;40964;42.114;24.220;2023-02-13T05:56:18;99807.31;;;0.44;77.51
55066;BME280;40964;42.114;24.220;2023-02-13T05:58:44;99799.97;;;0.50;77.46
55066;BME280;40964;42.114;24.220;2023-02-13T06:01:09;99802.16;;;0.56;77.29
55066;BME280;40964;42.114;24.220;2023-02-13T06:03:35;99802.78;;;0.47;76.95
55066;BME280;40964;42.114;24.220;2023-02-13T06:06:00;99808.75;;;0.35;77.25
55066;BME280;40964;42.114;24.220;2023-02-13T06:08:26;99807.75;;;0.38;77.50
55066;BME280;40964;42.114;24.220;2023-02-13T06:10:51;99812.09;;;0.37;77.64
55066;BME280;40964;42.114;24.220;2023-02-13T06:13:17;99817.78;;;0.42;77.09
55066;BME280;40964;42.114;24.220;2023-02-13T06:15:43;99815.50;;;0.50;77.33
55066;BME280;40964;42.114;24.220;2023-02-13T06:18:09;99822.53;;;0.61;77.41
55066;BME280;40964;42.114;24.220;2023-02-13T06:20:35;99812.38;;;0.71;77.17
55066;BME280;40964;42.114;24.220;2023-02-13T06:23:00;99818.63;;;0.81;76.39
55066;BME280;40964;42.114;24.220;2023-02-13T06:25:26;99818.41;;;0.84;75.99
55066;BME280;40964;42.114;24.220;2023-02-13T06:27:52;99808.06;;;0.84;75.58
55066;BME280;40964;42.114;24.220;2023-02-13T06:30:18;99799.22;;;0.87;75.49
55066;BME280;40964;42.114;24.220;2023-02-13T06:32:47;99817.56;;;1.09;75.08
55066;BME280;40964;42.114;24.220;2023-02-13T06:35:14;99809.03;;;1.07;75.33
55066;BME280;40964;42.114;24.220;2023-02-13T06:37:40;99812.03;;;1.13;75.16
55066;BME280;40964;42.114;24.220;2023-02-13T06:40:07;99816.81;;;1.20;74.92
55066;BME280;40964;42.114;24.220;2023-02-13T06:42:33;99810.97;;;1.29;74.89
55066;BME280;40964;42.114;24.220;2023-02-13T06:44:58;99816.44;;;1.37;74.86
55066;BME280;40964;42.114;24.220;2023-02-13T06:47:24;99816.75;;;1.45;74.79
55066;BME280;40964;42.114;24.220;2023-02-13T06:49:49;99819.22;;;1.47;75.67
55066;BME280;40964;42.114;24.220;2023-02-13T06:52:15;99815.56;;;1.49;75.73
55066;BME280;40964;42.114;24.220;2023-02-13T06:54:40;99819.66;;;1.40;76.35
55066;BME280;40964;42.114;24.220;2023-02-13T06:57:06;99824.22;;;1.37;77.37
55066;BME280;40964;42.114;24.220;2023-02-13T06:59:31;99826.19;;;1.33;78.58
55066;BME280;40964;42.114;24.220;2023-02-13T07:01:57;99827.53;;;1.39;77.76
55066;BME280;40964;42.114;24.220;2023-02-13T07:04:22;99825.53;;;1.42;78.34
55066;BME280;40964;42.114;24.220;2023-02-13T07:06:48;99814.41;;;1.29;78.54
55066;BME280;40964;42.114;24.220;2023-02-13T07:09:13;99831.13;;;1.49;77.53
55066;BME280;40964;42.114;24.220;2023-02-13T07:11:39;99813.97;;;1.59;76.14
55066;BME280;40964;42.114;24.220;2023-02-13T07:14:08;99824.69;;;1.79;75.93
55066;BME280;40964;42.114;24.220;2023-02-13T07:16:34;99825.19;;;1.84;75.46
55066;BME280;40964;42.114;24.220;2023-02-13T07:18:59;99825.47;;;1.92;73.57
55066;BME280;40964;42.114;24.220;2023-02-13T07:21:25;99820.47;;;2.13;73.21
55066;BME280;40964;42.114;24.220;2023-02-13T07:23:51;99819.13;;;2.31;72.12
55066;BME280;40964;42.114;24.220;2023-02-13T07:26:17;99811.69;;;2.38;71.80
55066;BME280;40964;42.114;24.220;2023-02-13T07:28:42;99829.75;;;2.39;72.61
55066;BME280;40964;42.114;24.220;2023-02-13T07:31:08;99828.94;;;2.50;72.83
55066;BME280;40964;42.114;24.220;2023-02-13T07:33:34;99841.47;;;2.45;74.00
55066;BME280;40964;42.114;24.220;2023-02-13T07:35:59;99827.09;;;2.52;74.41
55066;BME280;40964;42.114;24.220;2023-02-13T07:38:28;99837.25;;;2.55;74.34
55066;BME280;40964;42.114;24.220;2023-02-13T07:40:58;99837.69;;;2.49;73.61
55066;BME280;40964;42.114;24.220;2023-02-13T07:43:24;99821.66;;;2.55;74.18
55066;BME280;40964;42.114;24.220;2023-02-13T07:45:50;99832.31;;;2.74;73.46
55066;BME280;40964;42.114;24.220;2023-02-13T07:48:23;99829.97;;;2.82;72.05
55066;BME280;40964;42.114;24.220;2023-02-13T07:50:52;99817.09;;;2.70;72.23
55066;BME280;40964;42.114;24.220;2023-02-13T07:53:18;99821.59;;;2.90;71.86
55066;BME280;40964;42.114;24.220;2023-02-13T07:55:44;99821.94;;;2.97;71.76
55066;BME280;40964;42.114;24.220;2023-02-13T07:58:09;99816.97;;;2.94;72.38
55066;BME280;40964;42.114;24.220;2023-02-13T08:00:35;99816.38;;;3.01;72.83
55066;BME280;40964;42.114;24.220;2023-02-13T08:03:00;99819.56;;;3.05;71.33
55066;BME280;40964;42.114;24.220;2023-02-13T08:05:27;99816.03;;;3.06;71.70
55066;BME280;40964;42.114;24.220;2023-02-13T08:07:53;99812.22;;;3.21;70.64
55066;BME280;40964;42.114;24.220;2023-02-13T08:10:19;99819.09;;;3.33;71.29
55066;BME280;40964;42.114;24.220;2023-02-13T08:13:03;99810.56;;;3.20;70.16
55066;BME280;40964;42.114;24.220;2023-02-13T08:15:28;99816.56;;;3.32;71.48
55066;BME280;40964;42.114;24.220;2023-02-13T08:17:54;99813.03;;;3.44;70.40
55066;BME280;40964;42.114;24.220;2023-02-13T08:20:19;99809.09;;;3.50;70.30
55066;BME280;40964;42.114;24.220;2023-02-13T08:22:45;99815.47;;;3.57;68.39
55066;BME280;40964;42.114;24.220;2023-02-13T08:25:11;99810.28;;;3.57;68.17
55066;BME280;40964;42.114;24.220;2023-02-13T08:27:37;99808.75;;;3.54;68.72
55066;BME280;40964;42.114;24.220;2023-02-13T08:30:07;99813.69;;;3.57;68.33
55066;BME280;40964;42.114;24.220;2023-02-13T08:32:33;99809.09;;;3.61;67.71
55066;BME280;40964;42.114;24.220;2023-02-13T08:34:58;99800.56;;;3.70;66.70
55066;BME280;40964;42.114;24.220;2023-02-13T08:37:24;99799.94;;;3.78;65.69
55066;BME280;40964;42.114;24.220;2023-02-13T08:39:49;99796.78;;;3.95;66.11
55066;BME280;40964;42.114;24.220;2023-02-13T08:42:15;99800.34;;;3.94;66.78
55066;BME280;40964;42.114;24.220;2023-02-13T08:44:40;99790.31;;;4.10;66.08
55066;BME280;40964;42.114;24.220;2023-02-13T08:47:07;99786.28;;;4.17;65.32
55066;BME280;40964;42.114;24.220;2023-02-13T08:49:33;99780.31;;;4.26;65.36
55066;BME280;40964;42.114;24.220;2023-02-13T08:52:01;99766.56;;;4.45;64.90
55066;BME280;40964;42.114;24.220;2023-02-13T08:54:27;99784.16;;;4.53;63.79
55066;BME280;40964;42.114;24.220;2023-02-13T08:56:53;99788.28;;;4.55;63.73
55066;BME280;40964;42.114;24.220;2023-02-13T08:59:19;99777.69;;;4.47;64.25
55066;BME280;40964;42.114;24.220;2023-02-13T09:01:45;99778.50;;;4.69;63.91
55066;BME280;40964;42.114;24.220;2023-02-13T09:04:11;99771.97;;;4.84;63.17
55066;BME280;40964;42.114;24.220;2023-02-13T09:06:36;99773.69;;;5.04;63.47
55066;BME280;40964;42.114;24.220;2023-02-13T09:09:04;99776.19;;;5.16;62.60
55066;BME280;40964;42.114;24.220;2023-02-13T09:11:29;99767.94;;;5.10;61.72
55066;BME280;40964;42.114;24.220;2023-02-13T09:13:55;99772.63;;;5.17;61.64
55066;BME280;40964;42.114;24.220;2023-02-13T09:16:21;99770.03;;;5.26;62.33
55066;BME280;40964;42.114;24.220;2023-02-13T09:18:48;99767.31;;;5.37;61.95
55066;BME280;40964;42.114;24.220;2023-02-13T09:21:14;99767.22;;;5.58;60.61
55066;BME280;40964;42.114;24.220;2023-02-13T09:23:40;99765.69;;;5.65;60.67
55066;BME280;40964;42.114;24.220;2023-02-13T09:26:10;99766.97;;;5.81;59.65
55066;BME280;40964;42.114;24.220;2023-02-13T09:28:36;99764.50;;;5.79;59.03
55066;BME280;40964;42.114;24.220;2023-02-13T09:33:35;99755.16;;;5.77;59.20
55066;BME280;40964;42.114;24.220;2023-02-13T09:36:09;99759.41;;;5.87;59.20
55066;BME280;40964;42.114;24.220;2023-02-13T09:38:35;99754.22;;;5.97;58.14
55066;BME280;40964;42.114;24.220;2023-02-13T09:41:21;99761.22;;;6.06;57.94
55066;BME280;40964;42.114;24.220;2023-02-13T09:43:59;99741.41;;;6.13;57.93
55066;BME280;40964;42.114;24.220;2023-02-13T09:46:37;99742.75;;;6.27;57.59
55066;BME280;40964;42.114;24.220;2023-02-13T09:49:18;99742.34;;;6.32;57.39
55066;BME280;40964;42.114;24.220;2023-02-13T09:51:47;99735.75;;;6.18;56.92
55066;BME280;40964;42.114;24.220;2023-02-13T09:54:18;99731.75;;;6.33;57.11
55066;BME280;40964;42.114;24.220;2023-02-13T09:57:13;99728.91;;;6.54;55.88
55066;BME280;40964;42.114;24.220;2023-02-13T09:59:52;99725.72;;;6.97;57.07
55066;BME280;40964;42.114;24.220;2023-02-13T10:10:56;99706.06;;;7.38;54.73
55066;BME280;40964;42.114;24.220;2023-02-13T10:16:16;99703.78;;;7.44;54.02
55066;BME280;40964;42.114;24.220;2023-02-13T10:21:19;99684.13;;;7.22;53.49
55066;BME280;40964;42.114;24.220;2023-02-13T10:23:50;99683.47;;;7.20;53.24
55066;BME280;40964;42.114;24.220;2023-02-13T10:26:24;99675.22;;;7.32;54.00
55066;BME280;40964;42.114;24.220;2023-02-13T10:29:11;99668.94;;;7.43;53.42
55066;BME280;40964;42.114;24.220;2023-02-13T10:31:59;99654.19;;;7.78;53.16
55066;BME280;40964;42.114;24.220;2023-02-13T10:34:30;99645.28;;;7.71;51.86
55066;BME280;40964;42.114;24.220;2023-02-13T10:36:59;99648.78;;;8.05;51.41
55066;BME280;40964;42.114;24.220;2023-02-13T10:39:28;99639.56;;;8.19;50.00
55066;BME280;40964;42.114;24.220;2023-02-13T10:41:59;99643.66;;;8.21;49.70
55066;BME280;40964;42.114;24.220;2023-02-13T10:50:02;99623.34;;;8.23;49.89
55066;BME280;40964;42.114;24.220;2023-02-13T10:58:14;99607.47;;;8.59;47.96
55066;BME280;40964;42.114;24.220;2023-02-13T11:03:24;99610.88;;;8.51;47.53
55066;BME280;40964;42.114;24.220;2023-02-13T11:05:52;99599.44;;;8.61;46.55
55066;BME280;40964;42.114;24.220;2023-02-13T11:11:02;99584.25;;;8.89;46.62
55066;BME280;40964;42.114;24.220;2023-02-13T11:13:28;99578.00;;;8.73;45.78
55066;BME280;40964;42.114;24.220;2023-02-13T11:16:08;99585.44;;;9.02;46.36
55066;BME280;40964;42.114;24.220;2023-02-13T11:18:42;99572.63;;;9.07;44.87
55066;BME280;40964;42.114;24.220;2023-02-13T11:21:17;99573.63;;;9.06;45.17
55066;BME280;40964;42.114;24.220;2023-02-13T11:23:50;99573.78;;;9.05;44.46
55066;BME280;40964;42.114;24.220;2023-02-13T11:26:33;99572.16;;;9.04;44.48
55066;BME280;40964;42.114;24.220;2023-02-13T11:29:00;99570.00;;;9.07;44.63
55066;BME280;40964;42.114;24.220;2023-02-13T11:31:34;99558.22;;;9.20;43.98
55066;BME280;40964;42.114;24.220;2023-02-13T11:36:50;99548.53;;;9.45;42.63
55066;BME280;40964;42.114;24.220;2023-02-13T11:39:21;99544.75;;;9.47;42.85
55066;BME280;40964;42.114;24.220;2023-02-13T11:41:48;99549.16;;;9.63;42.60
55066;BME280;40964;42.114;24.220;2023-02-13T11:44:25;99549.84;;;9.49;41.68
55066;BME280;40964;42.114;24.220;2023-02-13T11:46:53;99543.75;;;9.64;42.16
55066;BME280;40964;42.114;24.220;2023-02-13T11:49:27;99539.50;;;9.55;41.35
55066;BME280;40964;42.114;24.220;2023-02-13T11:52:06;99522.06;;;9.62;41.38
55066;BME280;40964;42.114;24.220;2023-02-13T11:54:38;99525.13;;;9.82;40.53
55066;BME280;40964;42.114;24.220;2023-02-13T11:57:20;99518.25;;;9.81;42.04
55066;BME280;40964;42.114;24.220;2023-02-13T11:59:48;99514.03;;;10.11;40.66
55066;BME280;40964;42.114;24.220;2023-02-13T12:02:23;99518.34;;;9.96;38.92
55066;BME280;40964;42.114;24.220;2023-02-13T12:04:51;99507.16;;;10.02;40.24
55066;BME280;40964;42.114;24.220;2023-02-13T12:07:30;99498.97;;;10.36;38.55
55066;BME280;40964;42.114;24.220;2023-02-13T12:12:52;99485.75;;;10.52;36.50
55066;BME280;40964;42.114;24.220;2023-02-13T12:15:23;99490.66;;;10.78;34.76
55066;BME280;40964;42.114;24.220;2023-02-13T12:28:45;99463.69;;;10.54;35.20
55066;BME280;40964;42.114;24.220;2023-02-13T12:34:18;99461.84;;;10.62;34.15
55066;BME280;40964;42.114;24.220;2023-02-13T12:37:11;99458.34;;;10.85;34.23
55066;BME280;40964;42.114;24.220;2023-02-13T12:42:49;99450.59;;;10.45;33.28
55066;BME280;40964;42.114;24.220;2023-02-13T12:51:00;99446.44;;;10.51;34.08
55066;BME280;40964;42.114;24.220;2023-02-13T12:53:43;99450.72;;;10.52;33.30
55066;BME280;40964;42.114;24.220;2023-02-13T13:02:10;99435.78;;;10.67;33.24
55066;BME280;40964;42.114;24.220;2023-02-13T13:07:17;99444.41;;;10.61;32.76
55066;BME280;40964;42.114;24.220;2023-02-13T13:09:59;99443.06;;;10.65;32.34
55066;BME280;40964;42.114;24.220;2023-02-13T13:18:45;99424.94;;;10.70;32.78
55066;BME280;40964;42.114;24.220;2023-02-13T13:20:56;99429.06;;;10.88;33.27
55066;BME280;40964;42.114;24.220;2023-02-13T13:26:29;99420.06;;;10.59;32.80
55066;BME280;40964;42.114;24.220;2023-02-13T13:29:00;99408.56;;;10.37;33.53
55066;BME280;40964;42.114;24.220;2023-02-13T13:31:28;99422.69;;;10.59;33.40
55066;BME280;40964;42.114;24.220;2023-02-13T13:33:59;99419.06;;;10.60;32.78
55066;BME280;40964;42.114;24.220;2023-02-13T13:36:42;99420.69;;;10.84;33.20
55066;BME280;40964;42.114;24.220;2023-02-13T13:39:19;99413.38;;;10.94;32.71
55066;BME280;40964;42.114;24.220;2023-02-13T13:44:51;99417.84;;;11.08;33.09
55066;BME280;40964;42.114;24.220;2023-02-13T13:47:53;99412.41;;;11.25;32.59
55066;BME280;40964;42.114;24.220;2023-02-13T13:50:23;99406.13;;;11.11;31.98
55066;BME280;40964;42.114;24.220;2023-02-13T13:53:12;99401.03;;;10.95;32.05
55066;BME280;40964;42.114;24.220;2023-02-13T14:00:45;99402.03;;;10.94;32.54
55066;BME280;40964;42.114;24.220;2023-02-13T14:03:23;99401.88;;;10.72;33.03
55066;BME280;40964;42.114;24.220;2023-02-13T14:06:04;99399.75;;;10.53;33.25
55066;BME280;40964;42.114;24.220;2023-02-13T14:16:53;99394.09;;;10.10;35.08
55066;BME280;40964;42.114;24.220;2023-02-13T14:21:51;99392.78;;;10.06;34.87
55066;BME280;40964;42.114;24.220;2023-02-13T14:24:18;99387.06;;;10.03;34.77
55066;BME280;40964;42.114;24.220;2023-02-13T14:26:57;99379.72;;;9.98;34.82
55066;BME280;40964;42.114;24.220;2023-02-13T14:29:30;99393.56;;;10.15;35.04
55066;BME280;40964;42.114;24.220;2023-02-13T14:32:05;99394.53;;;10.22;35.76
55066;BME280;40964;42.114;24.220;2023-02-13T14:34:36;99391.09;;;10.13;35.98
55066;BME280;40964;42.114;24.220;2023-02-13T14:37:12;99394.94;;;10.03;36.06
55066;BME280;40964;42.114;24.220;2023-02-13T14:40:08;99392.38;;;9.94;36.72
55066;BME280;40964;42.114;24.220;2023-02-13T14:42:36;99387.53;;;9.75;37.86
55066;BME280;40964;42.114;24.220;2023-02-13T14:45:14;99382.59;;;9.41;38.52
55066;BME280;40964;42.114;24.220;2023-02-13T14:47:46;99395.50;;;9.12;39.02
55066;BME280;40964;42.114;24.220;2023-02-13T14:50:58;99385.53;;;8.82;39.73
55066;BME280;40964;42.114;24.220;2023-02-13T14:56:31;99381.09;;;8.18;42.00
55066;BME280;40964;42.114;24.220;2023-02-13T14:59:18;99372.84;;;7.96;42.49
55066;BME280;40964;42.114;24.220;2023-02-13T15:02:14;99381.97;;;7.76;43.00
55066;BME280;40964;42.114;24.220;2023-02-13T15:04:58;99384.50;;;7.60;43.27
55066;BME280;40964;42.114;24.220;2023-02-13T15:07:34;99380.50;;;7.39;43.60
55066;BME280;40964;42.114;24.220;2023-02-13T15:12:39;99385.28;;;7.10;44.45
55066;BME280;40964;42.114;24.220;2023-02-13T15:15:33;99385.41;;;6.82;45.20
55066;BME280;40964;42.114;24.220;2023-02-13T15:18:16;99379.25;;;6.66;45.69
55066;BME280;40964;42.114;24.220;2023-02-13T15:20:43;99380.19;;;6.57;45.93
55066;BME280;40964;42.114;24.220;2023-02-13T15:23:27;99382.19;;;6.45;45.83
55066;BME280;40964;42.114;24.220;2023-02-13T15:26:18;99376.88;;;6.37;46.10
55066;BME280;40964;42.114;24.220;2023-02-13T15:28:59;99386.38;;;6.20;46.21
55066;BME280;40964;42.114;24.220;2023-02-13T15:31:30;99383.91;;;6.18;46.45
55066;BME280;40964;42.114;24.220;2023-02-13T15:33:57;99394.00;;;6.13;46.84
55066;BME280;40964;42.114;24.220;2023-02-13T15:36:25;99356.75;;;5.84;47.01
55066;BME280;40964;42.114;24.220;2023-02-13T15:39:03;99390.75;;;6.02;47.41
55066;BME280;40964;42.114;24.220;2023-02-13T15:41:55;99391.53;;;5.94;47.52
55066;BME280;40964;42.114;24.220;2023-02-13T15:44:27;99399.34;;;5.94;47.13
55066;BME280;40964;42.114;24.220;2023-02-13T15:47:00;99390.59;;;5.85;47.77
55066;BME280;40964;42.114;24.220;2023-02-13T15:49:37;99397.03;;;5.81;47.97